Time;durP1;ratioP1;P1;durP2;ratioP2;P2;SDS_P1;SDS_P2;PMS_P1;PMS_P2;Temp;Humidity;BMP_temperature;BMP_pressure;BME280_temperature;BME280_humidity;BME280_pressure;Samples;Min_cycle;Max_cycle;Signal;HPM_P1;HPM_P2
2023/01/28 00:01:38;;;;;;;10.73;9.82;;;9.90;87.40;;;;;;5072361;28;20070;-59
2023/01/28 00:04:04;;;;;;;10.68;9.73;;;9.90;87.60;;;;;;5072162;28;20017;-59
2023/01/28 00:06:29;;;;;;;10.13;9.23;;;9.90;87.70;;;;;;5072417;28;20055;-59
2023/01/28 00:08:55;;;;;;;10.80;9.90;;;10.00;87.80;;;;;;5071650;28;20446;-59
2023/01/28 00:11:21;;;;;;;11.60;10.50;;;10.00;87.80;;;;;;5072513;28;20040;-61
2023/01/28 00:13:53;;;;;;;11.85;10.80;;;10.00;87.50;;;;;;5072123;28;20020;-58
2023/01/28 00:16:19;;;;;;;11.43;10.43;;;10.00;88.00;;;;;;5071977;28;20076;-59
2023/01/28 00:18:44;;;;;;;11.77;10.68;;;10.00;88.00;;;;;;5072252;28;20020;-62
2023/01/28 00:21:13;;;;;;;11.70;10.55;;;10.00;88.00;;;;;;5054310;28;20032;-59
2023/01/28 00:23:40;;;;;;;12.45;11.25;;;10.00;88.40;;;;;;5071960;28;20035;-60
2023/01/28 00:26:14;;;;;;;12.15;11.05;;;9.90;88.50;;;;;;5071779;28;20429;-58
2023/01/28 00:28:41;;;;;;;12.77;11.57;;;10.00;88.70;;;;;;5072191;28;20032;-60
2023/01/28 00:31:08;;;;;;;12.32;11.13;;;10.00;88.70;;;;;;5072315;28;20465;-60
2023/01/28 00:33:35;;;;;;;12.98;11.68;;;10.00;88.80;;;;;;5072216;28;20040;-59
2023/01/28 00:36:02;;;;;;;12.93;11.60;;;9.90;88.70;;;;;;5071661;28;20039;-64
2023/01/28 00:38:28;;;;;;;12.00;10.93;;;10.00;88.70;;;;;;5071897;28;20021;-59
2023/01/28 00:40:54;;;;;;;11.95;10.73;;;9.90;89.20;;;;;;5072095;28;20040;-59
2023/01/28 00:43:20;;;;;;;11.68;10.57;;;9.90;88.10;;;;;;5071993;28;20477;-59
2023/01/28 00:45:46;;;;;;;13.38;10.57;;;9.90;88.20;;;;;;5072107;28;20108;-60
2023/01/28 00:48:11;;;;;;;11.30;10.20;;;9.90;87.90;;;;;;5071291;28;20541;-59
2023/01/28 00:50:38;;;;;;;10.98;9.95;;;9.90;87.90;;;;;;5071971;28;20501;-59
2023/01/28 00:53:04;;;;;;;10.45;9.48;;;9.90;87.80;;;;;;5071644;28;20029;-60
2023/01/28 00:55:29;;;;;;;9.70;8.80;;;9.90;88.00;;;;;;5071837;28;20040;-58
2023/01/28 00:57:55;;;;;;;10.13;9.13;;;9.90;87.70;;;;;;5071649;28;20025;-59
2023/01/28 01:00:24;;;;;;;10.40;9.40;;;9.90;87.80;;;;;;5071773;28;20032;-60
2023/01/28 01:02:50;;;;;;;10.05;8.95;;;9.90;87.70;;;;;;5071899;28;20043;-59
2023/01/28 01:05:16;;;;;;;10.07;9.07;;;9.90;87.50;;;;;;5053467;28;20402;-59
2023/01/28 01:07:42;;;;;;;9.68;8.77;;;9.90;87.70;;;;;;5071635;28;20020;-59
2023/01/28 01:10:18;;;;;;;9.85;8.15;;;9.90;87.60;;;;;;5071445;28;20040;-59
2023/01/28 01:12:48;;;;;;;9.65;8.75;;;9.90;87.90;;;;;;5071839;28;20047;-59
2023/01/28 01:15:15;;;;;;;9.63;8.73;;;9.90;88.00;;;;;;5071696;28;20508;-59
2023/01/28 01:17:43;;;;;;;8.98;8.18;;;9.90;88.20;;;;;;5071581;28;20024;-58
2023/01/28 01:20:19;;;;;;;8.50;7.68;;;9.90;88.00;;;;;;5074735;28;20025;-59
2023/01/28 01:22:45;;;;;;;8.05;7.35;;;9.90;87.80;;;;;;5075625;28;20017;-59
2023/01/28 01:25:13;;;;;;;7.75;7.05;;;9.90;88.70;;;;;;5075007;28;20068;-59
2023/01/28 01:27:39;;;;;;;8.02;7.22;;;9.90;88.00;;;;;;5075076;28;20025;-59
2023/01/28 01:30:06;;;;;;;7.43;6.72;;;9.90;88.00;;;;;;5074963;28;20028;-59
2023/01/28 01:32:33;;;;;;;7.63;6.93;;;9.90;87.80;;;;;;5075164;28;20092;-60
2023/01/28 01:34:59;;;;;;;6.90;6.25;;;9.90;87.60;;;;;;5074585;28;20082;-59
2023/01/28 01:37:25;;;;;;;7.25;6.65;;;9.80;87.70;;;;;;5074873;28;20036;-59
2023/01/28 01:39:51;;;;;;;7.10;6.50;;;9.80;87.50;;;;;;5074945;28;20021;-59
2023/01/28 01:42:17;;;;;;;7.05;6.28;;;9.80;87.20;;;;;;5075118;28;20028;-58
2023/01/28 01:44:58;;;;;;;7.35;6.45;;;9.80;87.10;;;;;;5075119;28;20052;-58
2023/01/28 01:47:31;;;;;;;7.15;6.45;;;9.80;86.80;;;;;;5075003;28;20064;-58
2023/01/28 01:50:00;;;;;;;6.65;6.05;;;9.80;86.90;;;;;;5074125;28;20075;-57
2023/01/28 01:52:32;;;;;;;5.80;5.30;;;9.80;87.00;;;;;;5075182;28;20049;-59
2023/01/28 01:55:01;;;;;;;6.90;6.30;;;9.80;86.90;;;;;;5074640;28;20099;-60
2023/01/28 01:57:32;;;;;;;6.60;6.00;;;9.80;86.80;;;;;;5074725;28;20066;-61
2023/01/28 02:00:05;;;;;;;6.68;6.07;;;9.80;86.80;;;;;;5074793;28;20092;-59
2023/01/28 02:02:42;;;;;;;6.75;6.18;;;9.80;86.50;;;;;;5074966;28;20035;-60
2023/01/28 02:05:10;;;;;;;6.15;5.55;;;9.80;86.30;;;;;;5074090;28;20048;-59
2023/01/28 02:07:36;;;;;;;6.85;6.25;;;9.80;86.30;;;;;;5072350;28;20039;-60
2023/01/28 02:10:02;;;;;;;6.60;6.05;;;9.80;87.00;;;;;;5064820;28;20414;-59
2023/01/28 02:12:35;;;;;;;6.60;6.00;;;9.80;86.00;;;;;;5054158;28;20029;-59
2023/01/28 02:15:10;;;;;;;7.60;6.90;;;9.70;86.00;;;;;;5053111;28;20028;-59
2023/01/28 02:17:37;;;;;;;6.28;5.68;;;9.80;86.00;;;;;;5061295;28;20024;-58
2023/01/28 02:20:07;;;;;;;6.80;6.20;;;9.70;85.80;;;;;;5074183;28;20111;-59
2023/01/28 02:22:54;;;;;;;6.45;5.95;;;9.70;85.70;;;;;;5074493;28;20027;-61
2023/01/28 02:25:32;;;;;;;6.70;6.00;;;9.70;85.70;;;;;;5073932;28;20482;-65
2023/01/28 02:28:18;;;;;;;6.50;5.90;;;9.70;85.80;;;;;;5074034;28;20029;-69
2023/01/28 02:30:51;;;;;;;6.40;5.80;;;9.70;85.90;;;;;;5072636;28;20722;-59
2023/01/28 02:33:41;;;;;;;7.13;6.15;;;9.70;85.70;;;;;;5073930;28;20028;-64
2023/01/28 02:36:41;;;;;;;6.40;5.90;;;9.70;85.80;;;;;;5073847;28;20041;-59
2023/01/28 02:39:12;;;;;;;6.55;5.95;;;9.70;86.00;;;;;;5073640;28;20583;-61
2023/01/28 02:41:45;;;;;;;7.55;6.85;;;9.70;85.50;;;;;;5074002;28;20020;-58
2023/01/28 02:44:11;;;;;;;7.55;6.85;;;9.70;85.00;;;;;;5073923;28;20024;-60
2023/01/28 02:49:27;;;;;;;7.85;7.15;;;9.70;85.60;;;;;;5073456;28;20067;-61
2023/01/28 02:51:58;;;;;;;8.30;7.60;;;9.70;85.90;;;;;;5073978;28;20024;-66
2023/01/28 02:54:35;;;;;;;12.73;8.00;;;9.70;86.30;;;;;;5073609;28;20791;-59
2023/01/28 02:57:23;;;;;;;8.10;7.38;;;9.70;86.80;;;;;;5073349;28;20474;-65
2023/01/28 03:00:17;;;;;;;11.48;7.95;;;9.70;87.00;;;;;;5073424;28;20028;-67
2023/01/28 03:02:55;;;;;;;9.55;8.65;;;9.70;87.50;;;;;;5073424;28;20032;-66
2023/01/28 03:05:33;;;;;;;9.27;8.48;;;9.70;88.30;;;;;;5073224;28;20085;-61
2023/01/28 03:07:59;;;;;;;8.98;8.18;;;9.60;87.80;;;;;;5072951;28;20021;-58
2023/01/28 03:10:26;;;;;;;9.02;8.23;;;9.60;88.20;;;;;;5072749;28;20386;-58
2023/01/28 03:39:14;;;;;;;9.52;8.55;;;9.60;89.00;;;;;;5072638;28;20082;-65
2023/01/28 03:41:39;;;;;;;11.10;9.98;;;9.50;89.20;;;;;;5072036;28;20029;-61
2023/01/28 03:46:49;;;;;;;11.25;10.15;;;9.60;89.00;;;;;;5072724;28;20547;-61
2023/01/28 03:49:15;;;;;;;10.57;9.57;;;9.60;89.00;;;;;;5072727;28;20024;-61
2023/01/28 03:51:41;;;;;;;11.27;10.10;;;9.50;88.90;;;;;;5072533;28;20056;-59
2023/01/28 03:54:07;;;;;;;10.07;9.18;;;9.50;89.10;;;;;;5072620;28;20070;-61
2023/01/28 03:56:36;;;;;;;10.50;9.50;;;9.50;88.80;;;;;;5072295;28;20024;-63
2023/01/28 03:59:02;;;;;;;10.68;9.57;;;9.50;88.90;;;;;;5072763;28;20026;-59
2023/01/28 04:01:28;;;;;;;10.77;9.88;;;9.50;88.80;;;;;;5072161;28;20025;-59
2023/01/28 04:03:54;;;;;;;10.65;9.65;;;9.50;88.70;;;;;;5072061;28;20525;-63
2023/01/28 04:06:19;;;;;;;10.88;9.85;;;9.50;88.60;;;;;;5072606;28;20029;-59
2023/01/28 04:08:51;;;;;;;10.02;9.07;;;9.50;88.70;;;;;;5072174;28;20033;-61
2023/01/28 04:11:20;;;;;;;9.15;8.35;;;9.50;88.70;;;;;;5072495;28;20028;-59
2023/01/28 04:13:47;;;;;;;11.50;10.38;;;9.50;88.60;;;;;;5072227;28;20031;-60
2023/01/28 04:16:15;;;;;;;9.93;9.00;;;9.50;88.40;;;;;;5072525;28;20048;-61
2023/01/28 04:18:42;;;;;;;10.45;9.45;;;9.50;88.60;;;;;;5072147;28;20021;-64
2023/01/28 04:21:07;;;;;;;11.32;10.23;;;9.50;88.60;;;;;;5072039;28;20158;-61
2023/01/28 04:23:33;;;;;;;11.23;10.15;;;9.50;88.80;;;;;;5072310;28;20095;-63
2023/01/28 04:25:59;;;;;;;10.23;9.32;;;9.50;88.60;;;;;;5072264;28;20086;-61
2023/01/28 04:28:24;;;;;;;10.77;9.77;;;9.50;88.80;;;;;;5071710;28;20028;-62
2023/01/28 04:30:53;;;;;;;10.18;9.18;;;9.50;88.70;;;;;;5072070;28;20036;-63
2023/01/28 04:33:19;;;;;;;10.40;9.25;;;9.40;88.30;;;;;;5072053;28;20385;-63
2023/01/28 04:35:44;;;;;;;10.30;8.95;;;9.40;88.30;;;;;;5071960;28;20499;-66
2023/01/28 04:38:10;;;;;;;9.10;8.20;;;9.40;88.30;;;;;;5071975;28;20025;-59
2023/01/28 04:40:35;;;;;;;9.38;8.48;;;9.40;88.20;;;;;;5071896;28;20397;-64
2023/01/28 04:43:01;;;;;;;9.13;8.25;;;9.40;88.30;;;;;;5071529;28;20074;-68
2023/01/28 04:45:27;;;;;;;9.85;8.95;;;9.30;88.10;;;;;;5072212;28;20028;-68
2023/01/28 04:47:52;;;;;;;9.63;8.73;;;9.40;88.20;;;;;;5072249;28;20040;-60
2023/01/28 04:50:18;;;;;;;10.10;9.10;;;9.40;88.20;;;;;;5071771;28;20028;-66
2023/01/28 04:52:43;;;;;;;9.40;8.52;;;9.40;87.90;;;;;;5072162;28;20017;-65
2023/01/28 04:55:10;;;;;;;9.15;8.27;;;9.40;87.80;;;;;;5075798;28;20033;-64
2023/01/28 04:57:36;;;;;;;9.90;9.00;;;9.40;88.00;;;;;;5075507;28;20081;-60
2023/01/28 05:00:04;;;;;;;9.77;8.88;;;9.40;87.70;;;;;;5075601;28;20027;-60
2023/01/28 05:02:30;;;;;;;10.68;9.70;;;9.30;87.60;;;;;;5075884;28;20031;-62
2023/01/28 05:04:55;;;;;;;9.55;8.65;;;9.40;87.60;;;;;;5075382;28;20012;-61
2023/01/28 05:07:21;;;;;;;8.98;8.18;;;9.30;87.50;;;;;;5075880;28;20470;-60
2023/01/28 05:09:46;;;;;;;10.48;9.48;;;9.30;87.50;;;;;;5075383;28;20024;-65
2023/01/28 05:12:12;;;;;;;10.07;9.18;;;9.30;88.20;;;;;;5074985;28;20091;-61
2023/01/28 05:14:37;;;;;;;10.95;9.85;;;9.30;87.60;;;;;;5075414;28;20029;-66
2023/01/28 05:17:03;;;;;;;10.93;9.82;;;9.30;87.60;;;;;;5075770;28;20067;-64
2023/01/28 05:19:29;;;;;;;11.02;10.00;;;9.30;87.70;;;;;;5075095;28;20139;-60
2023/01/28 05:21:54;;;;;;;10.20;9.15;;;9.30;87.90;;;;;;5075165;28;20032;-60
2023/01/28 05:24:20;;;;;;;10.98;9.85;;;9.20;87.80;;;;;;5075373;28;20020;-68
2023/01/28 05:26:46;;;;;;;11.07;9.98;;;9.30;87.90;;;;;;5075044;28;20029;-60
2023/01/28 05:29:11;;;;;;;11.00;9.98;;;9.30;87.80;;;;;;5075257;28;20044;-62
2023/01/28 05:31:37;;;;;;;11.70;10.52;;;9.20;87.80;;;;;;5074847;28;20028;-62
2023/01/28 05:34:02;;;;;;;12.15;10.95;;;9.30;87.90;;;;;;5074994;28;20043;-64
2023/01/28 05:36:28;;;;;;;11.23;10.23;;;9.20;87.90;;;;;;5075172;28;20032;-61
2023/01/28 05:38:54;;;;;;;12.05;10.40;;;9.20;88.00;;;;;;5075251;28;20033;-63
2023/01/28 05:41:19;;;;;;;11.95;10.75;;;9.20;87.90;;;;;;5074389;28;20493;-63
2023/01/28 05:43:45;;;;;;;12.07;10.88;;;9.20;88.20;;;;;;5074777;28;20154;-63
2023/01/28 05:46:11;;;;;;;12.30;10.98;;;9.20;88.20;;;;;;5074855;28;20020;-62
2023/01/28 05:48:36;;;;;;;12.10;10.90;;;9.30;88.20;;;;;;5074664;28;20082;-61
2023/01/28 05:51:04;;;;;;;12.75;11.45;;;9.30;88.30;;;;;;5075179;28;20158;-60
2023/01/28 05:53:30;;;;;;;13.00;11.70;;;9.20;88.10;;;;;;5074970;28;20044;-62
2023/01/28 05:55:55;;;;;;;12.82;11.43;;;9.20;87.70;;;;;;5074124;28;20040;-63
2023/01/28 05:58:21;;;;;;;12.38;11.18;;;9.20;87.70;;;;;;5074597;28;20032;-59
2023/01/28 06:00:46;;;;;;;11.85;10.63;;;9.20;87.50;;;;;;5070649;28;20025;-59
2023/01/28 06:03:12;;;;;;;12.45;11.15;;;9.10;87.70;;;;;;5061196;28;20497;-60
2023/01/28 06:05:38;;;;;;;11.77;10.65;;;9.10;87.80;;;;;;5073629;28;20021;-59
2023/01/28 06:08:03;;;;;;;14.05;12.65;;;9.10;87.60;;;;;;5071854;28;20107;-60
2023/01/28 06:10:29;;;;;;;12.98;11.55;;;9.10;87.60;;;;;;5073921;28;20035;-66
2023/01/28 06:12:55;;;;;;;12.02;10.82;;;9.10;87.40;;;;;;5073531;28;20055;-60
2023/01/28 06:15:21;;;;;;;11.48;10.38;;;9.10;87.20;;;;;;5074206;28;20047;-59
2023/01/28 06:17:47;;;;;;;12.15;10.82;;;9.10;87.30;;;;;;5074245;28;20048;-63
2023/01/28 06:20:12;;;;;;;12.18;10.90;;;9.10;87.60;;;;;;5056279;28;20070;-59
2023/01/28 06:22:38;;;;;;;12.63;11.32;;;9.10;88.30;;;;;;5073984;28;20031;-59
2023/01/28 06:25:04;;;;;;;11.75;10.55;;;9.10;87.60;;;;;;5073645;28;20085;-59
2023/01/28 06:27:30;;;;;;;12.10;10.90;;;9.00;87.30;;;;;;5074007;28;20447;-64
2023/01/28 06:29:55;;;;;;;11.07;9.98;;;9.10;87.20;;;;;;5073940;28;20119;-61
2023/01/28 06:32:21;;;;;;;11.88;10.55;;;9.10;87.30;;;;;;5073822;28;20096;-59
2023/01/28 06:34:47;;;;;;;10.13;9.13;;;9.00;87.50;;;;;;5073548;28;20106;-60
2023/01/28 06:37:13;;;;;;;11.02;9.82;;;9.00;87.20;;;;;;5073735;28;20036;-59
2023/01/28 06:39:39;;;;;;;12.50;10.45;;;9.00;87.30;;;;;;5073531;28;20103;-59
2023/01/28 06:42:05;;;;;;;10.85;9.75;;;9.00;86.90;;;;;;5071452;28;20501;-59
2023/01/28 06:44:31;;;;;;;11.32;10.23;;;9.00;87.10;;;;;;5073437;28;20029;-58
2023/01/28 06:46:56;;;;;;;11.73;10.55;;;9.00;87.00;;;;;;5070623;28;20030;-58
2023/01/28 06:49:22;;;;;;;10.40;9.32;;;8.90;86.80;;;;;;5052911;28;20036;-59
2023/01/28 06:51:48;;;;;;;12.13;10.93;;;9.00;87.10;;;;;;5072519;28;20032;-59
2023/01/28 06:54:14;;;;;;;11.30;10.13;;;9.00;86.90;;;;;;5071370;28;20078;-60
2023/01/28 06:56:39;;;;;;;11.52;10.32;;;9.00;86.80;;;;;;5072821;28;20097;-60
2023/01/28 06:59:05;;;;;;;13.18;11.77;;;8.90;86.40;;;;;;5072276;28;20052;-70
2023/01/28 07:01:31;;;;;;;12.57;11.25;;;8.90;86.40;;;;;;5072301;28;20055;-59
2023/01/28 07:03:56;;;;;;;13.77;12.15;;;8.90;86.30;;;;;;5073410;28;20485;-60
2023/01/28 07:06:22;;;;;;;12.77;11.40;;;8.90;86.30;;;;;;5073406;28;20032;-60
2023/01/28 07:08:48;;;;;;;13.25;11.82;;;8.90;86.30;;;;;;5072541;28;20031;-59
2023/01/28 07:11:14;;;;;;;12.80;11.50;;;8.90;86.70;;;;;;5072799;28;20044;-60
2023/01/28 07:13:40;;;;;;;12.27;10.98;;;8.90;86.80;;;;;;5073162;28;20088;-60
2023/01/28 07:16:06;;;;;;;11.82;10.57;;;8.90;86.80;;;;;;5072469;28;20539;-60
2023/01/28 07:18:32;;;;;;;12.27;11.07;;;8.90;86.60;;;;;;5055249;28;20551;-60
2023/01/28 07:20:59;;;;;;;13.85;11.13;;;8.90;86.70;;;;;;5072902;28;20112;-60
2023/01/28 07:23:25;;;;;;;12.13;10.85;;;8.90;86.60;;;;;;5072465;28;20044;-60
2023/01/28 07:25:50;;;;;;;12.60;11.02;;;8.90;86.80;;;;;;5073079;28;20068;-60
2023/01/28 07:28:20;;;;;;;13.77;11.82;;;8.90;86.50;;;;;;5072833;28;20021;-61
2023/01/28 07:30:52;;;;;;;13.30;11.90;;;8.80;86.50;;;;;;5072984;28;20028;-59
2023/01/28 07:33:18;;;;;;;13.00;11.38;;;8.90;86.10;;;;;;5072225;28;20588;-59
2023/01/28 07:35:45;;;;;;;12.25;10.93;;;8.80;86.20;;;;;;5066671;28;20567;-59
2023/01/28 07:38:11;;;;;;;13.60;12.18;;;8.80;86.20;;;;;;5072482;28;20355;-59
2023/01/28 07:40:37;;;;;;;12.80;11.50;;;8.80;86.40;;;;;;5070084;28;20111;-57
2023/01/28 07:43:03;;;;;;;12.73;11.43;;;8.80;86.50;;;;;;5070003;28;20102;-58
2023/01/28 07:45:30;;;;;;;13.50;12.02;;;8.80;86.30;;;;;;5067714;28;20112;-59
2023/01/28 07:48:02;;;;;;;11.90;10.52;;;8.80;86.40;;;;;;5068247;28;20027;-60
2023/01/28 07:50:29;;;;;;;11.25;10.05;;;8.70;87.50;;;;;;5068926;28;20389;-58
2023/01/28 07:52:55;;;;;;;11.25;9.50;;;8.60;87.30;;;;;;5067495;28;20017;-59
2023/01/28 07:55:21;;;;;;;12.93;11.52;;;8.60;87.80;;;;;;5058759;28;20044;-58
2023/01/28 07:57:50;;;;;;;14.07;12.68;;;8.70;86.50;;;;;;5060900;28;20070;-61
2023/01/28 08:00:17;;;;;;;14.10;12.60;;;8.60;84.40;;;;;;5061294;28;20041;-59
2023/01/28 08:02:46;;;;;;;14.98;13.30;;;8.30;85.20;;;;;;5053807;28;20033;-59
2023/01/28 08:05:19;;;;;;;13.95;12.50;;;8.10;85.70;;;;;;5065195;28;20033;-60
2023/01/28 08:07:47;;;;;;;15.52;13.43;;;8.20;87.10;;;;;;5064026;28;20029;-59
2023/01/28 08:10:13;;;;;;;15.57;13.48;;;7.80;87.00;;;;;;5051840;28;20108;-59
2023/01/28 08:12:39;;;;;;;15.27;13.77;;;7.40;87.70;;;;;;5066070;28;20507;-60
2023/01/28 08:15:06;;;;;;;16.50;14.82;;;7.20;88.20;;;;;;5055459;28;20017;-59
2023/01/28 08:17:31;;;;;;;15.27;13.65;;;7.10;89.20;;;;;;5067676;28;20027;-59
2023/01/28 08:19:57;;;;;;;16.65;14.70;;;6.80;89.90;;;;;;5069921;28;20096;-61
2023/01/28 08:22:24;;;;;;;16.02;14.30;;;6.80;89.90;;;;;;5064232;28;20392;-59
2023/01/28 08:24:50;;;;;;;15.35;13.60;;;6.50;90.30;;;;;;5051466;28;20009;-59
2023/01/28 08:27:15;;;;;;;18.55;16.33;;;6.50;90.50;;;;;;5060301;28;20013;-60
2023/01/28 08:29:42;;;;;;;9.70;7.97;;;6.60;90.70;;;;;;5073206;28;20374;-59
2023/01/28 08:32:08;;;;;;;8.73;7.68;;;7.20;92.90;;;;;;5070591;28;20028;-60
2023/01/28 08:34:34;;;;;;;14.65;9.40;;;7.80;92.60;;;;;;5065424;28;20016;-59
2023/01/28 08:36:59;;;;;;;11.15;9.93;;;8.10;91.30;;;;;;5067644;28;20042;-59
2023/01/28 08:39:25;;;;;;;12.13;10.18;;;8.40;90.70;;;;;;5062038;28;20032;-59
2023/01/28 08:41:51;;;;;;;11.65;10.45;;;8.50;90.50;;;;;;5055822;28;20025;-59
2023/01/28 08:44:16;;;;;;;12.38;10.98;;;8.70;90.00;;;;;;5060366;28;20028;-59
2023/01/28 08:46:42;;;;;;;11.75;10.50;;;8.80;89.40;;;;;;5068829;28;20079;-63
2023/01/28 08:49:07;;;;;;;11.45;10.10;;;8.90;89.10;;;;;;5055888;28;20025;-65
2023/01/28 08:51:33;;;;;;;14.70;12.68;;;9.00;88.80;;;;;;5055732;28;20470;-59
2023/01/28 08:53:59;;;;;;;14.20;12.55;;;9.00;87.40;;;;;;5061076;28;20044;-61
2023/01/28 08:56:25;;;;;;;14.65;12.23;;;8.90;87.70;;;;;;5072811;28;20052;-59
2023/01/28 08:58:50;;;;;;;16.27;13.88;;;8.70;88.20;;;;;;5070219;28;20031;-63
2023/01/28 09:01:16;;;;;;;19.08;14.15;;;8.70;87.80;;;;;;5072816;28;20384;-58
2023/01/28 09:03:42;;;;;;;17.67;14.35;;;8.80;87.00;;;;;;5071471;28;20545;-58
2023/01/28 09:06:07;;;;;;;16.30;14.30;;;8.70;86.60;;;;;;5069896;28;20111;-58
2023/01/28 09:08:33;;;;;;;15.20;13.45;;;8.70;86.70;;;;;;5074348;28;20025;-58
2023/01/28 09:10:59;;;;;;;15.27;13.68;;;8.60;87.00;;;;;;5069884;28;20093;-58
2023/01/28 09:13:26;;;;;;;14.85;13.25;;;8.60;87.20;;;;;;5067742;28;20378;-58
2023/01/28 09:15:51;;;;;;;15.43;13.77;;;8.60;87.20;;;;;;5071929;28;20111;-59
2023/01/28 09:18:18;;;;;;;14.02;12.55;;;8.60;87.20;;;;;;5084721;28;20514;-63
2023/01/28 09:20:43;;;;;;;14.63;12.95;;;8.60;87.40;;;;;;5086983;28;20020;-59
2023/01/28 09:23:09;;;;;;;17.38;13.48;;;8.60;87.80;;;;;;5071358;28;20051;-61
2023/01/28 09:25:35;;;;;;;16.02;14.32;;;8.60;87.90;;;;;;5075152;28;20434;-61
2023/01/28 09:28:01;;;;;;;17.65;14.85;;;8.70;86.40;;;;;;5074249;28;20750;-60
2023/01/28 09:30:27;;;;;;;16.52;13.02;;;8.60;87.10;;;;;;5073322;28;20420;-60
2023/01/28 09:32:54;;;;;;;15.63;13.48;;;8.50;86.30;;;;;;5072927;28;20109;-60
2023/01/28 09:35:20;;;;;;;16.73;13.57;;;8.60;86.70;;;;;;5072387;28;20032;-59
2023/01/28 09:37:47;;;;;;;16.38;13.93;;;8.50;87.30;;;;;;5074458;28;20047;-60
2023/01/28 09:40:20;;;;;;;15.05;13.27;;;8.50;86.70;;;;;;5070318;28;20047;-59
2023/01/28 09:43:20;;;;;;;16.35;13.43;;;8.50;86.40;;;;;;5074248;28;20534;-60
2023/01/28 09:45:49;;;;;;;15.27;13.35;;;8.60;86.40;;;;;;5067995;28;20478;-61
2023/01/28 09:48:32;;;;;;;14.23;12.73;;;8.50;86.60;;;;;;5067463;28;20024;-60
2023/01/28 09:50:59;;;;;;;14.80;13.20;;;8.50;86.60;;;;;;5071491;28;20154;-60
2023/01/28 09:53:30;;;;;;;14.80;13.00;;;8.50;86.60;;;;;;5070980;28;20024;-60
2023/01/28 09:56:01;;;;;;;15.23;13.63;;;8.50;86.60;;;;;;5051068;28;20037;-60
2023/01/28 09:58:26;;;;;;;15.63;13.07;;;8.60;86.40;;;;;;5069589;28;20020;-60
2023/01/28 10:01:15;;;;;;;15.35;12.82;;;8.50;86.40;;;;;;5071947;28;20746;-59
2023/01/28 10:03:46;;;;;;;13.23;11.60;;;8.60;86.40;;;;;;5054821;28;20025;-62
2023/01/28 10:06:18;;;;;;;15.70;13.63;;;8.50;86.70;;;;;;5074842;28;20028;-59
2023/01/28 10:09:13;;;;;;;15.65;13.80;;;8.50;86.50;;;;;;5072935;28;20287;-59
2023/01/28 10:12:12;;;;;;;14.90;12.95;;;8.50;86.40;;;;;;5068636;28;20025;-62
2023/01/28 10:14:40;;;;;;;15.43;13.73;;;8.50;86.70;;;;;;5062284;28;20082;-60
2023/01/28 10:17:23;;;;;;;16.25;13.75;;;8.50;86.90;;;;;;5073472;28;20041;-60
2023/01/28 10:19:58;;;;;;;16.52;14.27;;;8.50;86.80;;;;;;5071119;28;20095;-60
2023/01/28 10:22:34;;;;;;;16.90;15.20;;;8.50;86.50;;;;;;5068346;28;20562;-59
2023/01/28 10:25:05;;;;;;;16.55;13.90;;;8.60;86.90;;;;;;5061115;28;20448;-65
2023/01/28 10:27:33;;;;;;;17.27;14.52;;;8.60;86.50;;;;;;5067509;28;20099;-68
2023/01/28 10:30:08;;;;;;;16.65;14.43;;;8.50;86.60;;;;;;5066710;28;20024;-68
2023/01/28 10:32:42;;;;;;;14.43;12.90;;;8.60;86.40;;;;;;5066392;28;20042;-63
2023/01/28 10:35:07;;;;;;;14.75;13.13;;;8.60;86.30;;;;;;5067615;28;20024;-65
2023/01/28 10:37:35;;;;;;;15.77;13.90;;;8.50;86.80;;;;;;5072718;28;20041;-64
2023/01/28 10:40:02;;;;;;;16.83;13.63;;;8.60;87.30;;;;;;5071149;28;20027;-66
2023/01/28 10:42:38;;;;;;;12.48;11.10;;;8.50;87.70;;;;;;5067085;28;20037;-61
2023/01/28 10:45:14;;;;;;;15.60;12.95;;;8.50;87.60;;;;;;5070646;28;20138;-60
2023/01/28 10:47:53;;;;;;;16.73;14.88;;;8.60;87.00;;;;;;5071860;28;20067;-65
2023/01/28 10:50:25;;;;;;;16.05;12.00;;;8.70;86.20;;;;;;5068175;28;20111;-59
2023/01/28 10:53:04;;;;;;;13.77;12.13;;;8.70;85.70;;;;;;5068602;28;20027;-63
2023/01/28 10:55:46;;;;;;;14.48;11.60;;;8.70;86.10;;;;;;5069845;28;20207;-60
2023/01/28 10:58:58;;;;;;;13.70;12.30;;;8.70;86.90;;;;;;5069620;28;20505;-63
2023/01/28 11:01:24;;;;;;;11.60;10.40;;;8.70;86.20;;;;;;5070625;28;20111;-61
2023/01/28 11:03:57;;;;;;;13.80;10.48;;;8.70;86.10;;;;;;5071901;28;20111;-64
2023/01/28 11:06:29;;;;;;;11.63;10.32;;;8.80;85.50;;;;;;5066854;28;20028;-59
2023/01/28 11:08:55;;;;;;;11.30;9.45;;;8.80;85.20;;;;;;5069858;28;20080;-59
2023/01/28 11:11:25;;;;;;;12.15;9.98;;;8.80;85.10;;;;;;5069108;28;20032;-62
2023/01/28 11:13:53;;;;;;;10.60;9.50;;;8.80;84.90;;;;;;5067849;28;20025;-60
2023/01/28 11:16:19;;;;;;;10.48;9.38;;;8.90;84.80;;;;;;5068673;28;20037;-63
2023/01/28 11:18:52;;;;;;;10.15;8.93;;;8.90;84.70;;;;;;5071662;28;20028;-61
2023/01/28 11:21:24;;;;;;;11.00;9.00;;;8.80;84.80;;;;;;5070200;28;20035;-60
2023/01/28 11:24:02;;;;;;;8.98;8.07;;;8.90;84.40;;;;;;5047738;28;20029;-60
2023/01/28 11:26:37;;;;;;;11.95;9.10;;;8.80;84.70;;;;;;5065639;28;20044;-60
2023/01/28 11:29:03;;;;;;;11.32;7.85;;;8.80;85.10;;;;;;5063919;28;20024;-60
2023/01/28 11:31:39;;;;;;;9.48;7.68;;;8.80;85.20;;;;;;5070420;28;20635;-59
2023/01/28 11:34:05;;;;;;;8.57;7.38;;;8.90;84.80;;;;;;5066851;28;20025;-60
2023/01/28 11:36:34;;;;;;;9.85;8.13;;;8.90;84.30;;;;;;5051071;28;20362;-62
2023/01/28 11:39:04;;;;;;;8.82;7.13;;;9.00;84.40;;;;;;5063704;28;20028;-62
2023/01/28 11:41:37;;;;;;;8.20;6.70;;;8.90;85.60;;;;;;5068771;28;20480;-63
2023/01/28 11:44:17;;;;;;;7.35;6.60;;;8.90;86.00;;;;;;5062305;28;20489;-63
2023/01/28 11:46:58;;;;;;;8.82;6.60;;;8.90;84.50;;;;;;5064689;28;20086;-62
2023/01/28 11:49:52;;;;;;;8.05;5.82;;;8.90;84.70;;;;;;5074795;28;20425;-61
2023/01/28 11:52:23;;;;;;;6.13;5.50;;;8.90;85.10;;;;;;5066441;28;20024;-60
2023/01/28 11:55:16;;;;;;;5.72;5.15;;;9.00;85.10;;;;;;5067614;28;20025;-61
2023/01/28 11:57:51;;;;;;;7.97;5.13;;;9.00;84.40;;;;;;5068589;28;20287;-60
2023/01/28 12:00:28;;;;;;;5.82;4.72;;;9.00;84.70;;;;;;5050563;28;20025;-59
2023/01/28 12:03:23;;;;;;;5.03;4.53;;;9.00;85.20;;;;;;5063235;28;20035;-61
2023/01/28 12:06:10;;;;;;;6.50;4.90;;;9.00;84.30;;;;;;5050424;28;20048;-60
2023/01/28 12:09:09;;;;;;;5.78;4.95;;;9.00;83.60;;;;;;5065461;28;20500;-60
2023/01/28 12:12:11;;;;;;;6.38;4.03;;;9.10;83.30;;;;;;5067985;28;20472;-60
2023/01/28 12:14:43;;;;;;;6.38;5.45;;;9.00;83.40;;;;;;5071600;28;20036;-60
2023/01/28 12:17:30;;;;;;;6.82;5.47;;;9.00;84.10;;;;;;5070258;28;20044;-57
2023/01/28 12:20:16;;;;;;;7.85;5.68;;;9.10;83.70;;;;;;5070689;28;20443;-62
2023/01/28 12:22:51;;;;;;;8.40;6.15;;;9.00;84.50;;;;;;5064086;28;20028;-59
2023/01/28 12:25:38;;;;;;;9.80;6.05;;;9.10;83.90;;;;;;5064645;28;20083;-57
2023/01/28 12:28:33;;;;;;;6.10;5.45;;;9.10;84.20;;;;;;5065282;28;20112;-63
2023/01/28 12:31:05;;;;;;;8.40;5.53;;;9.00;85.30;;;;;;5033966;28;20133;-58
2023/01/28 12:33:49;;;;;;;8.30;6.75;;;9.00;85.40;;;;;;5059541;28;20155;-60
2023/01/28 12:36:41;;;;;;;7.90;6.68;;;9.00;86.80;;;;;;5063746;28;20469;-62
2023/01/28 12:39:30;;;;;;;8.03;5.57;;;9.10;85.50;;;;;;5066975;28;20045;-61
2023/01/28 12:42:09;;;;;;;6.95;6.25;;;9.10;84.80;;;;;;5062598;28;20289;-59
2023/01/28 12:44:47;;;;;;;8.30;6.07;;;9.20;84.00;;;;;;5067258;28;20108;-59
2023/01/28 12:47:21;;;;;;;9.38;5.80;;;9.10;85.10;;;;;;5069063;28;20067;-61
2023/01/28 12:49:57;;;;;;;6.57;5.88;;;9.10;85.10;;;;;;5069632;28;20024;-58
2023/01/28 12:52:43;;;;;;;7.28;5.65;;;9.10;85.50;;;;;;5062755;28;20028;-63
2023/01/28 12:55:14;;;;;;;8.40;6.10;;;9.10;85.70;;;;;;5063569;28;20481;-58
2023/01/28 12:57:40;;;;;;;8.23;6.28;;;9.20;84.20;;;;;;5047903;28;20047;-66
2023/01/28 13:00:29;;;;;;;7.00;6.30;;;9.20;84.80;;;;;;5059167;28;20024;-60
2023/01/28 13:03:18;;;;;;;8.80;6.43;;;9.10;85.20;;;;;;5071018;28;20103;-60
2023/01/28 13:05:49;;;;;;;8.02;6.43;;;9.10;87.50;;;;;;5070891;28;20413;-59
2023/01/28 13:08:22;;;;;;;7.30;6.43;;;9.20;85.40;;;;;;5064170;28;20035;-59
2023/01/28 13:10:48;;;;;;;7.40;6.25;;;9.30;83.00;;;;;;5069165;28;20023;-60
2023/01/28 13:13:28;;;;;;;7.35;6.65;;;9.20;84.00;;;;;;5065097;28;20040;-59
2023/01/28 13:15:54;;;;;;;9.43;7.10;;;9.30;82.40;;;;;;5071097;28;20090;-58
2023/01/28 13:18:38;;;;;;;7.03;5.68;;;9.20;83.50;;;;;;5071794;28;20036;-59
2023/01/28 13:21:11;;;;;;;8.88;6.88;;;9.20;85.20;;;;;;5073827;28;20024;-59
2023/01/28 13:23:41;;;;;;;;;;;9.20;84.30;;;;;;5066282;28;20028;-58
2023/01/28 13:26:26;;;;;;;6.43;5.82;;;9.20;85.10;;;;;;5071002;28;20015;-59
2023/01/28 13:29:05;;;;;;;8.40;6.32;;;9.30;85.00;;;;;;5062235;28;20074;-59
2023/01/28 13:31:40;;;;;;;7.30;6.43;;;9.20;85.40;;;;;;5070025;28;20035;-59
2023/01/28 13:34:09;;;;;;;10.30;6.70;;;9.30;85.90;;;;;;5065757;28;20052;-65